Terminal Aerodrome Forecast
Issued by NWS Denver/Boulder, CO

Home | Current Version | Previous Version | Text Only | Print | Product List | Glossary On
Versions: 1 2 3 4 5 6 7 8 9 10 11 12 13 14 15 16 17 18 19 20 21 22 23 24 25 26 27 28 29 30 31 32
000
FTUS45 KBOU 240807 AAA
TAFDEN
TAF AMD
KDEN 240807Z 2408/2512 24007KT P6SM BKN005
     FM241000 23006KT P6SM VCSH SCT008 BKN100
     FM241400 01013G21KT P6SM VCSH SCT008 BKN015 OVC025
     FM242100 03011KT P6SM SCT030 BKN060
     FM250100 36010KT P6SM SCT020 BKN040
     FM250600 19007KT P6SM SCT040 BKN080=

USA.gov is the U.S. government's official web portal to all federal, state and local government web resources and services.